AirNav   Air Wisconsin Up To $57,000 Bonus
 
 648 users online  

3WI4 Flying 'O' Airport
Wausau, Wisconsin, USA

GOING TO WAUSAU?


FAA INFORMATION EFFECTIVE 26 JANUARY 2023

Location

FAA Identifier: 3WI4
Lat/Long: 44-55-24.8900N 089-24-08.4220W
44-55.414833N 089-24.140367W
44.9235806,-89.4023394
(estimated)
Elevation: 1320 ft. / 402 m (estimated)
Variation: 00W (1985)
From city: 10 miles E of WAUSAU, WI
Time zone: UTC -6 (UTC -5 during Daylight Saving Time)
Zip code: 54471

Airport Operations

Airport use: Private use. Permission required prior to landing
Activation date: 07/1975
Control tower: no
ARTCC: MINNEAPOLIS CENTER
FSS: GREEN BAY FLIGHT SERVICE STATION
Attendance: DAWN-DUSK
Wind indicator: yes
Segmented circle: no

Airport Communications

WX ASOS at AUW (10 nm W): 125.925 (715-843-7215)
WX AWOS-3 at CWA (14 nm SW): 127.45 (715-693-1116)
WX AWOS-3 at AIG (19 nm NE): 119.075 (715-627-2869)

Airport Services

Runway Information

Runway 9/27

Dimensions: 2400 x 75 ft. / 732 x 23 m
Surface: turf
RUNWAY 9  RUNWAY 27
Traffic pattern: leftleft
Obstructions: 20 ft. pline, marked, 350 ft. from runwaynone

Airport Ownership and Management from official FAA records

Ownership: Privately-owned
Owner: TERRANCE W. OESTREICH
226823 COUNTY ROAD Q
RINGLE, WI 54471
Phone 715-581-7350
Manager: TERRANCE W. OESTREICH
226823 COUNTY ROAD Q
RINGLE, WI 54471
Phone 715-581-7350

Airport Operational Statistics

Aircraft based on the field: 2
Single engine airplanes: 2
    

Additional Remarks

CLSD DURG WINTER MONTHS FROM DEC 1ST - MAY 1ST.
FOR CD CTC MINNEAPOLIS ARTCC AT 651-463-5588.

Instrument Procedures

There are no published instrument procedures at 3WI4.

Some nearby airports with instrument procedures:

KAUW - Wausau Downtown Airport (10 nm W)
KCWA - Central Wisconsin Airport (14 nm SW)
KAIG - Langlade County Airport (19 nm NE)
KRRL - Merrill Municipal Airport (21 nm NW)
KSTE - Stevens Point Municipal Airport (23 nm S)
 
Loc | Ops | Rwys | IFR | FBO | Links
Com | Nav | Svcs | Stats | Notes
Area around 3WI4 (Flying 'O' Airport)
 
Road maps at: MapQuest Bing Google
 
Aerial photo
No photo
 
Sectional chart

 
Airport distance calculator
Flying to Flying 'O' Airport? Find the distance to fly.

From to 3WI4

Sunrise and sunset
Times for 27-Jan-2023
 Local
(UTC-6)
 Zulu
(UTC)
Morning civil twilight06:5212:52
Sunrise07:2413:24
Sunset16:5722:57
Evening civil twilight17:2923:29

Current date and time
Zulu (UTC)  27-Jan-2023 11:34:56
Local (UTC-6)  27-Jan-2023 05:34:56
 
METAR
KAUW 
9nm W 
271110Z AUTO 12008KT 1SM -SN FEW009 OVC013 M10/M13 A2955 RMK AO2 PRESFR P0000 T11001128
KAIG 
13nm NE 
271115Z AUTO 15014KT 1 1/4SM -SN OVC005 M13/M14 A2957 RMK AO2 T11301140
KCWA 
15nm SW 
271115Z AUTO 16014G17KT 1 3/4SM -SN SCT004 OVC015 M10/M11 A2957 RMK AO2
TAF
KAUW 
9nm W 
270929Z 2709/2806 15010G16KT P6SM -SN SCT005 OVC035 WS020/21040KT TEMPO 2709/2712 3SM -SN OVC005 FM271200 19012G23KT 2SM -SN BKN013 OVC020 WS020/22040KT TEMPO 2712/2716 1SM -SN OVC010 FM271800 24012G22KT P6SM -SHSN OVC018 FM272000 28016G25KT P6SM BKN025 FM280200 29012G20KT P6SM BKN025
KCWA 
15nm SW 
270929Z 2709/2806 15010G16KT P6SM -SN SCT004 OVC035 WS020/21040KT TEMPO 2709/2712 3SM -SN OVC004 FM271200 19012G23KT 2SM -SN BKN013 OVC020 WS020/22040KT TEMPO 2712/2716 1SM -SN OVC010 FM271800 24012G22KT P6SM -SHSN OVC018 FM272000 28016G25KT P6SM BKN025 FM280200 29012G20KT P6SM BKN025
NOTAMs
Click for the latest NOTAMs
NOTAMs are issued by the DoD/FAA and will open in a separate window not controlled by AirNav.

 

 
 

Would you like to see your business listed on this page?

 If your business provides an interesting product or service to pilots, flight crews, aircraft, or users of the Flying 'O' Airport, you should consider listing it here.  To start the listing process, click on the button below
 
Add a business
 

Other Pages about Flying 'O' Airport

Update a link
 
Copyright © AirNav, LLC. All rights reserved. Privacy Policy  Contact